createdAt,value
2022-10-18T00:00:17.200Z,5.30
2022-10-18T00:02:20.849Z,9.95
2022-10-18T00:04:24.062Z,6.25
2022-10-18T00:06:27.076Z,8.32
2022-10-18T00:08:30.268Z,7.03
2022-10-18T00:10:34.496Z,7.45
2022-10-18T00:12:38.154Z,7.55
2022-10-18T00:14:41.137Z,6.03
2022-10-18T00:16:44.082Z,3.88
2022-10-18T00:18:47.985Z,5.35
2022-10-18T00:21:01.601Z,4.05
2022-10-18T00:23:04.465Z,3.97
2022-10-18T00:25:10.720Z,4.78
2022-10-18T00:27:14.982Z,4.00
2022-10-18T00:29:18.111Z,5.18
2022-10-18T00:31:24.154Z,4.10
2022-10-18T00:33:27.129Z,4.03
2022-10-18T00:35:29.996Z,3.78
2022-10-18T00:37:32.940Z,6.10
2022-10-18T00:39:35.838Z,3.45
2022-10-18T00:41:38.351Z,6.30
2022-10-18T00:43:58.045Z,4.18
2022-10-18T00:46:01.023Z,5.88
2022-10-18T00:48:05.865Z,5.20
2022-10-18T00:50:09.585Z,8.05
2022-10-18T00:52:13.998Z,6.53
2022-10-18T00:54:18.282Z,5.53
2022-10-18T00:56:21.192Z,4.18
2022-10-18T00:58:24.096Z,4.05
2022-10-18T01:00:28.394Z,6.32
2022-10-18T01:02:31.573Z,4.75
2022-10-18T01:04:35.301Z,3.72
2022-10-18T01:06:42.592Z,5.82
2022-10-18T01:08:52.234Z,4.40
2022-10-18T01:11:04.184Z,10.15
2022-10-18T01:13:16.330Z,27.10
2022-10-18T01:15:27.363Z,3.88
2022-10-18T01:17:38.121Z,5.97
2022-10-18T01:20:24.862Z,6.53
2022-10-18T01:22:30.133Z,5.82
2022-10-18T01:24:47.412Z,7.82
2022-10-18T01:27:20.161Z,5.15
2022-10-18T01:29:30.666Z,6.53
2022-10-18T01:31:36.403Z,16.00
2022-10-18T01:33:42.324Z,4.18
2022-10-18T01:35:49.934Z,6.82
2022-10-18T01:37:53.404Z,16.30
2022-10-18T01:39:58.353Z,7.43
2022-10-18T01:42:02.907Z,13.35
2022-10-18T01:44:08.602Z,7.93
2022-10-18T01:46:12.892Z,7.07
2022-10-18T01:48:17.723Z,4.68
2022-10-18T01:50:29.616Z,9.90
2022-10-18T01:52:34.141Z,10.10
2022-10-18T01:54:39.000Z,10.88
2022-10-18T01:56:46.468Z,5.32
2022-10-18T01:58:58.550Z,5.65
2022-10-18T02:03:18.872Z,7.85
2022-10-18T02:05:27.628Z,4.90
2022-10-18T02:07:35.330Z,5.90
2022-10-18T02:09:42.544Z,8.77
2022-10-18T02:11:46.673Z,6.60
2022-10-18T02:13:52.893Z,10.43
2022-10-18T02:15:59.068Z,6.53
2022-10-18T02:18:03.158Z,8.88
2022-10-18T02:20:10.516Z,11.02
2022-10-18T02:22:14.103Z,11.85
2022-10-18T02:24:17.322Z,8.27
2022-10-18T02:26:20.195Z,13.30
2022-10-18T02:30:31.825Z,15.30
2022-10-18T02:32:36.400Z,6.95
2022-10-18T02:34:41.922Z,13.65
2022-10-18T02:36:48.168Z,7.68
2022-10-18T02:38:58.183Z,9.05
2022-10-18T02:41:01.763Z,12.30
2022-10-18T02:43:07.005Z,9.38
2022-10-18T02:45:12.274Z,7.03
2022-10-18T02:47:15.477Z,10.23
2022-10-18T02:49:18.652Z,7.25
2022-10-18T02:51:21.775Z,7.22
2022-10-18T02:53:26.003Z,7.40
2022-10-18T02:57:37.198Z,8.57
2022-10-18T02:59:40.147Z,7.70
2022-10-18T03:01:43.344Z,7.28
2022-10-18T03:03:46.313Z,8.95
2022-10-18T03:05:50.293Z,11.45
2022-10-18T03:07:57.883Z,17.73
2022-10-18T03:10:02.139Z,12.55
2022-10-18T03:12:05.529Z,9.45
2022-10-18T03:14:08.662Z,18.65
2022-10-18T03:16:12.595Z,11.00
2022-10-18T03:18:15.539Z,11.13
2022-10-18T03:20:19.745Z,11.07
2022-10-18T03:22:22.798Z,9.95
2022-10-18T03:24:25.701Z,9.75
2022-10-18T03:26:29.915Z,9.77
2022-10-18T03:28:33.028Z,12.23
2022-10-18T03:30:35.947Z,22.45
2022-10-18T03:32:38.967Z,10.65
2022-10-18T03:34:42.050Z,10.23
2022-10-18T03:36:44.933Z,13.77
2022-10-18T03:38:47.868Z,10.35
2022-10-18T03:40:52.455Z,12.00
2022-10-18T03:42:56.704Z,7.60
2022-10-18T03:44:59.595Z,8.13
2022-10-18T03:47:02.453Z,10.55
2022-10-18T03:49:05.467Z,11.25
2022-10-18T03:51:08.365Z,14.45
2022-10-18T03:53:11.606Z,14.63
2022-10-18T03:55:14.912Z,10.30
2022-10-18T03:57:18.021Z,8.20
2022-10-18T03:59:22.650Z,10.20
2022-10-18T04:01:25.673Z,13.15
2022-10-18T04:03:28.767Z,9.98
2022-10-18T04:05:31.830Z,8.32
2022-10-18T04:09:44.529Z,9.07
2022-10-18T04:11:47.441Z,9.52
2022-10-18T04:13:50.408Z,11.50
2022-10-18T04:15:55.097Z,10.80
2022-10-18T04:18:00.252Z,7.38
2022-10-18T04:20:03.145Z,9.85
2022-10-18T04:22:06.019Z,14.88
2022-10-18T04:24:08.961Z,12.80
2022-10-18T04:26:11.838Z,12.38
2022-10-18T04:28:18.588Z,9.05
2022-10-18T04:30:21.434Z,10.45
2022-10-18T04:32:28.619Z,12.50
2022-10-18T04:34:31.703Z,9.57
2022-10-18T04:36:34.564Z,13.70
2022-10-18T04:38:37.634Z,10.90
2022-10-18T04:40:40.472Z,13.20
2022-10-18T04:42:44.154Z,11.25
2022-10-18T04:44:47.285Z,7.70
2022-10-18T04:46:50.591Z,10.27
2022-10-18T04:48:55.031Z,10.23
2022-10-18T04:50:57.988Z,8.90
2022-10-18T04:53:00.891Z,19.88
2022-10-18T04:55:03.752Z,8.50
2022-10-18T04:57:06.612Z,13.40
2022-10-18T04:59:09.525Z,11.27
2022-10-18T05:01:12.925Z,11.48
2022-10-18T05:03:18.408Z,8.10
2022-10-18T05:05:23.209Z,10.00
2022-10-18T05:07:27.722Z,11.07
2022-10-18T05:09:30.557Z,26.60
2022-10-18T05:11:33.385Z,15.45
2022-10-18T05:13:36.330Z,14.43
2022-10-18T05:15:39.459Z,13.63
2022-10-18T05:17:42.456Z,14.98
2022-10-18T05:19:46.380Z,13.90
2022-10-18T05:21:51.208Z,14.90
2022-10-18T05:23:57.085Z,14.55
2022-10-18T05:26:03.205Z,15.60
2022-10-18T05:28:11.139Z,9.80
2022-10-18T05:30:24.148Z,12.75
2022-10-18T05:32:27.044Z,11.82
2022-10-18T05:34:31.957Z,13.75
2022-10-18T05:36:35.112Z,16.33
2022-10-18T05:38:43.053Z,14.13
2022-10-18T05:40:46.313Z,13.68
2022-10-18T05:42:50.164Z,14.70
2022-10-18T05:44:53.044Z,9.35
2022-10-18T05:46:55.966Z,12.18
2022-10-18T05:48:58.854Z,12.52
2022-10-18T05:51:02.095Z,16.42
2022-10-18T05:53:12.568Z,17.83
2022-10-18T05:55:28.865Z,19.33
2022-10-18T05:57:32.804Z,17.95
2022-10-18T05:59:35.981Z,23.48
2022-10-18T06:01:39.116Z,14.82
2022-10-18T06:03:41.998Z,16.67
2022-10-18T06:05:44.993Z,15.77
2022-10-18T06:07:47.966Z,17.10
2022-10-18T06:09:50.877Z,13.00
2022-10-18T06:11:57.478Z,20.60
2022-10-18T06:14:01.857Z,17.65
2022-10-18T06:16:05.289Z,19.13
2022-10-18T06:18:08.158Z,18.77
2022-10-18T06:20:11.398Z,15.32
2022-10-18T06:22:14.687Z,20.60
2022-10-18T06:24:18.384Z,18.80
2022-10-18T06:26:21.914Z,16.08
2022-10-18T06:28:26.327Z,22.17
2022-10-18T06:30:29.286Z,20.60
2022-10-18T06:32:32.175Z,18.35
2022-10-18T06:34:35.468Z,20.98
2022-10-18T06:36:38.341Z,19.67
2022-10-18T06:38:42.466Z,18.92
2022-10-18T06:40:45.747Z,17.48
2022-10-18T06:42:59.932Z,29.77
2022-10-18T06:45:05.634Z,21.10
2022-10-18T06:47:09.197Z,32.22
2022-10-18T06:49:14.138Z,20.23
2022-10-18T06:51:20.060Z,21.33
2022-10-18T06:53:23.080Z,23.63
2022-10-18T06:55:25.946Z,21.98
2022-10-18T06:57:28.871Z,24.38
2022-10-18T06:59:31.787Z,31.10
2022-10-18T07:01:36.140Z,22.88
2022-10-18T07:03:39.461Z,20.95
2022-10-18T07:05:42.381Z,24.83
2022-10-18T07:07:45.313Z,25.98
2022-10-18T07:09:48.422Z,26.92
2022-10-18T07:11:52.877Z,23.20
2022-10-18T07:14:03.015Z,29.00
2022-10-18T07:16:07.687Z,34.03
2022-10-18T07:18:12.264Z,28.35
2022-10-18T07:20:15.363Z,27.92
2022-10-18T07:22:18.466Z,28.48
2022-10-18T07:24:21.432Z,26.23
2022-10-18T07:26:27.214Z,39.35
2022-10-18T07:28:31.032Z,25.88
2022-10-18T07:30:34.009Z,42.63
2022-10-18T07:32:37.051Z,32.88
2022-10-18T07:34:41.406Z,47.63
2022-10-18T07:36:44.423Z,31.63
2022-10-18T07:38:47.714Z,44.60
2022-10-18T07:40:57.703Z,35.70
2022-10-18T07:43:04.507Z,32.97
2022-10-18T07:45:08.716Z,29.35
2022-10-18T07:47:11.676Z,32.30
2022-10-18T07:49:14.890Z,34.47
2022-10-18T07:51:20.327Z,54.95
2022-10-18T07:53:23.354Z,41.03
2022-10-18T07:55:26.195Z,39.70
2022-10-18T07:57:29.399Z,33.35
2022-10-18T07:59:32.426Z,36.25
2022-10-18T08:01:35.934Z,54.05
2022-10-18T08:03:39.569Z,36.55
2022-10-18T08:05:42.665Z,31.75
2022-10-18T08:07:47.324Z,38.28
2022-10-18T08:09:50.195Z,32.85
2022-10-18T08:11:55.861Z,38.85
2022-10-18T08:13:58.878Z,44.38
2022-10-18T08:16:02.477Z,41.45
2022-10-18T08:18:08.386Z,50.03
2022-10-18T08:20:29.771Z,50.55
2022-10-18T08:22:33.703Z,31.88
2022-10-18T08:24:37.914Z,37.60
2022-10-18T08:26:40.889Z,47.08
2022-10-18T08:28:53.493Z,45.80
2022-10-18T08:31:04.264Z,31.08
2022-10-18T08:33:07.255Z,31.55
2022-10-18T08:35:10.700Z,40.15
2022-10-18T08:37:13.749Z,56.38
2022-10-18T08:39:17.035Z,39.10
2022-10-18T08:41:32.394Z,46.28
2022-10-18T08:43:39.131Z,43.72
2022-10-18T08:45:44.190Z,48.42
2022-10-18T08:47:51.963Z,69.60
2022-10-18T08:49:57.744Z,62.28
2022-10-18T08:52:00.659Z,62.17
2022-10-18T08:54:09.166Z,76.70
2022-10-18T08:56:14.913Z,80.35
2022-10-18T08:58:22.579Z,80.78
2022-10-18T09:00:27.291Z,86.57
2022-10-18T09:02:42.720Z,82.07
2022-10-18T09:04:51.204Z,72.70
2022-10-18T09:07:07.798Z,79.15
2022-10-18T09:09:21.912Z,72.25
2022-10-18T09:11:36.565Z,70.05
2022-10-18T09:14:07.575Z,74.57
2022-10-18T09:16:12.698Z,78.80
2022-10-18T09:18:26.307Z,65.68
2022-10-18T09:20:35.083Z,74.32
2022-10-18T09:22:47.630Z,59.95
2022-10-18T09:24:56.745Z,75.43
2022-10-18T09:27:03.251Z,69.97
2022-10-18T09:29:16.678Z,58.92
2022-10-18T09:31:23.225Z,58.13
2022-10-18T09:33:47.689Z,59.20
2022-10-18T09:35:53.634Z,53.88
2022-10-18T09:38:02.175Z,62.67
2022-10-18T09:40:16.555Z,49.55
2022-10-18T09:42:26.823Z,57.85
2022-10-18T09:44:34.847Z,51.05
2022-10-18T09:46:40.488Z,59.75
2022-10-18T09:48:47.793Z,58.22
2022-10-18T09:50:54.004Z,60.08
2022-10-18T09:53:06.368Z,62.67
2022-10-18T09:55:15.717Z,64.80
2022-10-18T09:57:23.415Z,53.55
2022-10-18T09:59:35.584Z,61.08
2022-10-18T10:01:38.800Z,57.28
2022-10-18T10:03:43.039Z,58.97
2022-10-18T10:05:46.124Z,61.20
2022-10-18T10:07:49.824Z,61.33
2022-10-18T10:09:57.853Z,54.58
2022-10-18T10:12:00.841Z,61.25
2022-10-18T10:14:10.093Z,62.25
2022-10-18T10:16:16.844Z,54.33
2022-10-18T10:18:22.526Z,54.80
2022-10-18T10:20:36.642Z,54.42
2022-10-18T10:22:41.067Z,51.72
2022-10-18T10:24:48.811Z,54.88
2022-10-18T10:26:51.853Z,48.80
2022-10-18T10:28:55.511Z,52.78
2022-10-18T10:31:21.130Z,49.17
2022-10-18T10:33:36.080Z,51.03
2022-10-18T10:35:53.002Z,50.80
2022-10-18T10:37:56.731Z,53.45
2022-10-18T10:40:19.212Z,51.55
2022-10-18T10:42:24.316Z,42.85
2022-10-18T10:44:30.201Z,44.95
2022-10-18T10:46:38.085Z,44.85
2022-10-18T10:48:47.408Z,38.70
2022-10-18T10:51:01.636Z,43.53
2022-10-18T10:53:04.521Z,45.05
2022-10-18T10:55:33.982Z,42.58
2022-10-18T10:57:38.405Z,45.08
2022-10-18T10:59:44.625Z,43.75
2022-10-18T11:01:51.481Z,44.45
2022-10-18T11:03:56.348Z,43.15
2022-10-18T11:06:01.020Z,54.95
2022-10-18T11:08:05.486Z,46.85
2022-10-18T11:10:14.588Z,46.40
2022-10-18T11:12:25.763Z,51.63
2022-10-18T11:14:31.372Z,48.75
2022-10-18T11:16:37.204Z,42.05
2022-10-18T11:18:43.924Z,46.92
2022-10-18T11:20:50.589Z,46.22
2022-10-18T11:23:00.528Z,52.17
2022-10-18T11:25:05.102Z,45.25
2022-10-18T11:27:12.156Z,46.40
2022-10-18T11:29:34.374Z,47.20
2022-10-18T11:31:41.014Z,50.45
2022-10-18T11:34:14.294Z,47.97
2022-10-18T11:36:21.811Z,41.00
2022-10-18T11:38:32.132Z,41.78
2022-10-18T11:40:56.570Z,49.95
2022-10-18T11:43:07.323Z,47.28
2022-10-18T11:45:23.074Z,46.22
2022-10-18T11:47:30.918Z,42.67
2022-10-18T11:49:58.058Z,43.70
2022-10-18T11:52:09.166Z,45.75
2022-10-18T11:54:25.541Z,45.97
2022-10-18T11:56:33.814Z,35.55
2022-10-18T11:58:48.955Z,41.50
2022-10-18T12:00:54.696Z,42.90
2022-10-18T12:03:21.531Z,39.55
2022-10-18T12:05:26.196Z,36.22
2022-10-18T12:07:32.510Z,32.97
2022-10-18T12:09:38.315Z,37.17
2022-10-18T12:11:47.153Z,34.35
2022-10-18T12:13:53.653Z,29.95
2022-10-18T12:15:56.804Z,29.55
2022-10-18T12:18:01.921Z,31.88
2022-10-18T12:20:11.428Z,30.15
2022-10-18T12:22:21.776Z,28.63
2022-10-18T12:24:27.312Z,23.35
2022-10-18T12:26:33.959Z,22.73
2022-10-18T12:28:46.142Z,22.33
2022-10-18T12:30:55.479Z,19.50
2022-10-18T12:33:26.505Z,22.60
2022-10-18T12:35:32.603Z,22.08
2022-10-18T12:37:58.940Z,18.40
2022-10-18T12:40:10.624Z,19.65
2022-10-18T12:42:20.376Z,17.92
2022-10-18T12:44:27.844Z,20.65
2022-10-18T12:46:45.003Z,28.13
2022-10-18T12:48:52.185Z,19.25
2022-10-18T12:50:59.803Z,18.60
2022-10-18T12:53:18.530Z,19.38
2022-10-18T12:55:39.958Z,12.93
2022-10-18T12:58:02.659Z,15.77
2022-10-18T13:00:06.623Z,22.38
2022-10-18T13:02:16.641Z,20.15
2022-10-18T13:04:35.298Z,11.50
2022-10-18T13:07:20.543Z,14.23
2022-10-18T13:09:26.322Z,17.55
2022-10-18T13:11:33.427Z,17.05
2022-10-18T13:13:51.103Z,11.70
2022-10-18T13:15:58.756Z,13.60
2022-10-18T13:18:06.220Z,10.55
2022-10-18T13:20:26.135Z,11.50
2022-10-18T13:22:42.732Z,10.18
2022-10-18T13:24:54.377Z,11.52
2022-10-18T13:27:31.386Z,17.73
2022-10-18T13:29:57.590Z,7.05
2022-10-18T13:32:04.782Z,7.75
2022-10-18T13:34:29.062Z,12.55
2022-10-18T13:36:34.110Z,11.60
2022-10-18T13:38:50.759Z,18.13
2022-10-18T13:41:03.410Z,11.55
2022-10-18T13:43:47.824Z,16.83
2022-10-18T13:45:56.275Z,10.52
2022-10-18T13:47:59.279Z,13.20
2022-10-18T13:50:33.112Z,13.85
2022-10-18T13:53:09.181Z,11.70
2022-10-18T13:55:39.980Z,9.95
2022-10-18T13:57:53.117Z,16.42
2022-10-18T14:00:22.034Z,12.15
2022-10-18T14:03:00.194Z,13.50
2022-10-18T14:05:24.777Z,14.30
2022-10-18T14:07:28.999Z,11.25
2022-10-18T14:09:55.021Z,9.05
2022-10-18T14:12:04.717Z,12.25
2022-10-18T14:14:16.790Z,11.40
2022-10-18T14:16:29.501Z,11.70
2022-10-18T14:18:34.456Z,10.48
2022-10-18T14:20:49.389Z,21.67
2022-10-18T14:23:03.438Z,11.18
2022-10-18T14:25:21.669Z,12.25
2022-10-18T14:27:34.029Z,11.10
2022-10-18T14:29:38.654Z,9.73
2022-10-18T14:31:52.863Z,11.40
2022-10-18T14:33:58.865Z,8.73
2022-10-18T14:36:11.544Z,11.02
2022-10-18T14:38:17.609Z,13.88
2022-10-18T14:40:29.040Z,17.92
2022-10-18T14:42:32.114Z,10.63
2022-10-18T14:44:35.278Z,8.43
2022-10-18T14:46:44.643Z,14.05
2022-10-18T14:48:55.616Z,14.63
2022-10-18T14:51:00.474Z,9.00
2022-10-18T14:53:07.360Z,11.50
2022-10-18T14:55:18.618Z,11.15
2022-10-18T14:57:24.945Z,14.00
2022-10-18T14:59:29.031Z,14.13
2022-10-18T15:01:33.740Z,7.03
2022-10-18T15:03:38.187Z,11.30
2022-10-18T15:05:53.014Z,11.68
2022-10-18T15:07:58.046Z,8.48
2022-10-18T15:10:02.902Z,16.13
2022-10-18T15:12:07.587Z,11.20
2022-10-18T15:14:14.596Z,8.50
2022-10-18T15:16:21.473Z,13.40
2022-10-18T15:18:25.814Z,8.43
2022-10-18T15:20:32.262Z,9.13
2022-10-18T15:22:35.481Z,13.70
2022-10-18T15:24:40.267Z,14.38
2022-10-18T15:26:45.444Z,13.35
2022-10-18T15:28:52.339Z,16.08
2022-10-18T15:30:57.578Z,11.02
2022-10-18T15:33:04.618Z,15.07
2022-10-18T15:35:13.376Z,16.10
2022-10-18T15:37:24.747Z,11.88
2022-10-18T15:39:32.095Z,13.27
2022-10-18T15:41:40.195Z,10.60
2022-10-18T15:43:43.761Z,7.82
2022-10-18T15:47:59.508Z,15.43
2022-10-18T15:50:02.671Z,10.20
2022-10-18T15:52:39.346Z,14.27
2022-10-18T15:56:54.811Z,13.63
2022-10-18T15:58:58.826Z,21.55
2022-10-18T16:01:04.333Z,8.70
2022-10-18T16:03:09.223Z,17.55
2022-10-18T16:05:16.733Z,9.70
2022-10-18T16:07:19.625Z,9.00
2022-10-18T16:09:24.146Z,15.35
2022-10-18T16:11:29.828Z,12.90
2022-10-18T16:13:32.766Z,6.60
2022-10-18T16:15:35.671Z,11.52
2022-10-18T16:17:38.566Z,17.15
2022-10-18T16:19:41.495Z,12.80
2022-10-18T16:21:44.466Z,9.40
2022-10-18T16:23:48.200Z,12.25
2022-10-18T16:25:51.863Z,11.50
2022-10-18T16:27:56.383Z,8.82
2022-10-18T16:29:59.288Z,10.77
2022-10-18T16:32:02.888Z,8.25
2022-10-18T16:34:10.763Z,7.85
2022-10-18T16:36:16.190Z,12.98
2022-10-18T16:38:27.921Z,12.60
2022-10-18T16:40:34.589Z,4.75
2022-10-18T16:42:42.488Z,12.20
2022-10-18T16:44:47.781Z,14.57
2022-10-18T16:46:53.828Z,10.98
2022-10-18T16:48:58.603Z,6.63
2022-10-18T16:51:01.593Z,14.38
2022-10-18T16:53:04.736Z,18.35
2022-10-18T16:55:14.881Z,11.93
2022-10-18T16:57:17.990Z,7.05
2022-10-18T16:59:29.292Z,12.07
2022-10-18T17:01:33.620Z,12.23
2022-10-18T17:03:36.639Z,8.27
2022-10-18T17:05:39.606Z,9.65
2022-10-18T17:07:43.454Z,14.65
2022-10-18T17:09:46.403Z,11.02
2022-10-18T17:11:49.494Z,10.55
2022-10-18T17:13:52.710Z,9.00
2022-10-18T17:15:56.966Z,14.15
2022-10-18T17:18:01.270Z,7.05
2022-10-18T17:20:06.532Z,14.48
2022-10-18T17:22:09.590Z,14.18
2022-10-18T17:24:12.601Z,8.13
2022-10-18T17:26:28.222Z,12.00
2022-10-18T17:28:31.712Z,18.60
2022-10-18T17:30:34.837Z,15.88
2022-10-18T17:32:37.832Z,14.43
2022-10-18T17:34:42.546Z,17.10
2022-10-18T17:36:46.052Z,14.88
2022-10-18T17:38:51.447Z,14.80
2022-10-18T17:40:54.585Z,19.27
2022-10-18T17:42:57.659Z,13.93
2022-10-18T17:45:00.544Z,22.75
2022-10-18T17:47:03.980Z,16.73
2022-10-18T17:49:06.934Z,18.45
2022-10-18T17:51:12.493Z,13.25
2022-10-18T17:53:16.647Z,17.20
2022-10-18T17:55:19.545Z,14.60
2022-10-18T17:57:22.633Z,21.13
2022-10-18T17:59:25.556Z,15.97
2022-10-18T18:01:28.836Z,17.93
2022-10-18T18:03:31.910Z,23.23
2022-10-18T18:05:35.448Z,13.27
2022-10-18T18:07:39.678Z,14.83
2022-10-18T18:09:42.579Z,15.80
2022-10-18T18:11:47.337Z,13.40
2022-10-18T18:13:50.283Z,20.23
2022-10-18T18:15:53.221Z,15.20
2022-10-18T18:17:57.485Z,18.23
2022-10-18T18:20:00.939Z,14.67
2022-10-18T18:22:04.810Z,21.73
2022-10-18T18:24:10.432Z,18.87
2022-10-18T18:26:13.530Z,18.60
2022-10-18T18:28:16.601Z,22.47
2022-10-18T18:30:22.076Z,15.93
2022-10-18T18:32:25.110Z,20.10
2022-10-18T18:34:28.031Z,20.97
2022-10-18T18:36:33.179Z,16.60
2022-10-18T18:38:39.631Z,16.10
2022-10-18T18:40:43.909Z,15.93
2022-10-18T18:43:01.630Z,15.90
2022-10-18T18:45:10.099Z,24.70
2022-10-18T18:47:13.516Z,28.77
2022-10-18T18:49:16.860Z,25.20
2022-10-18T18:51:21.665Z,19.73
2022-10-18T18:53:28.540Z,20.83
2022-10-18T18:55:32.864Z,16.83
2022-10-18T18:57:37.151Z,18.57
2022-10-18T18:59:40.448Z,24.23
2022-10-18T19:01:43.511Z,24.90
2022-10-18T19:03:48.351Z,21.27
2022-10-18T19:05:51.547Z,16.30
2022-10-18T19:07:54.775Z,21.83
2022-10-18T19:09:57.703Z,11.40
2022-10-18T19:12:00.601Z,14.23
2022-10-18T19:14:05.589Z,17.40
2022-10-18T19:16:18.457Z,10.57
2022-10-18T19:18:23.880Z,16.90
2022-10-18T19:20:27.040Z,15.53
2022-10-18T19:22:30.010Z,12.77
2022-10-18T19:24:33.880Z,11.43
2022-10-18T19:26:39.297Z,23.20
2022-10-18T19:28:42.187Z,15.73
2022-10-18T19:30:50.216Z,21.73
2022-10-18T19:33:01.143Z,14.63
2022-10-18T19:35:06.886Z,15.90
2022-10-18T19:37:10.457Z,16.03
2022-10-18T19:39:18.221Z,16.77
2022-10-18T19:41:21.568Z,16.70
2022-10-18T19:43:24.685Z,31.10
2022-10-18T19:45:29.744Z,14.23
2022-10-18T19:47:38.274Z,14.27
2022-10-18T19:49:42.582Z,21.83
2022-10-18T19:51:45.996Z,22.90
2022-10-18T19:53:49.248Z,14.13
2022-10-18T19:55:58.821Z,19.37
2022-10-18T19:58:01.779Z,15.43
2022-10-18T20:00:08.214Z,12.47
2022-10-18T20:02:15.385Z,16.80
2022-10-18T20:04:22.995Z,20.43
2022-10-18T20:06:26.161Z,23.50
2022-10-18T20:08:30.702Z,15.70
2022-10-18T20:10:33.984Z,19.67
2022-10-18T20:12:37.088Z,19.80
2022-10-18T20:14:41.646Z,16.40
2022-10-18T20:16:45.125Z,10.33
2022-10-18T20:18:49.178Z,9.17
2022-10-18T20:20:53.615Z,10.47
2022-10-18T20:22:58.862Z,13.53
2022-10-18T20:25:01.897Z,11.30
2022-10-18T20:27:05.369Z,14.17
2022-10-18T20:29:08.294Z,17.63
2022-10-18T20:31:13.917Z,11.57
2022-10-18T20:33:16.877Z,14.00
2022-10-18T20:35:20.034Z,16.80
2022-10-18T20:37:24.302Z,10.53
2022-10-18T20:39:27.753Z,16.77
2022-10-18T20:41:31.982Z,8.00
2022-10-18T20:43:35.395Z,24.30
2022-10-18T20:45:38.266Z,7.60
2022-10-18T20:47:44.210Z,10.90
2022-10-18T20:49:47.413Z,10.10
2022-10-18T20:51:50.743Z,12.53
2022-10-18T20:53:55.246Z,13.07
2022-10-18T20:56:03.708Z,14.57
2022-10-18T20:58:07.742Z,16.17
2022-10-18T21:00:15.808Z,16.70
2022-10-18T21:02:18.685Z,26.70
2022-10-18T21:04:21.604Z,26.33
2022-10-18T21:06:25.849Z,12.40
2022-10-18T21:08:29.042Z,9.60
2022-10-18T21:10:33.584Z,8.30
2022-10-18T21:12:37.477Z,11.80
2022-10-18T21:14:40.667Z,18.37
2022-10-18T21:16:43.941Z,15.60
2022-10-18T21:18:46.877Z,16.20
2022-10-18T21:20:50.027Z,13.20
2022-10-18T21:22:53.978Z,14.00
2022-10-18T21:24:56.885Z,13.80
2022-10-18T21:27:01.183Z,11.43
2022-10-18T21:29:05.500Z,9.77
2022-10-18T21:31:13.741Z,10.63
2022-10-18T21:33:16.832Z,11.80
2022-10-18T21:35:20.137Z,23.23
2022-10-18T21:37:23.067Z,7.40
2022-10-18T21:39:26.488Z,15.67
2022-10-18T21:41:29.740Z,10.63
2022-10-18T21:43:33.974Z,10.73
2022-10-18T21:45:36.898Z,22.77
2022-10-18T21:47:40.190Z,20.80
2022-10-18T21:49:43.080Z,10.07
2022-10-18T21:51:46.176Z,15.57
2022-10-18T21:53:51.587Z,16.00
2022-10-18T21:55:54.504Z,11.80
2022-10-18T21:57:57.425Z,10.77
2022-10-18T22:00:03.489Z,12.33
2022-10-18T22:02:06.359Z,13.73
2022-10-18T22:04:19.366Z,15.90
2022-10-18T22:06:23.633Z,15.20
2022-10-18T22:08:26.566Z,11.40
2022-10-18T22:10:30.163Z,17.83
2022-10-18T22:12:33.066Z,14.10
2022-10-18T22:14:36.297Z,11.53
2022-10-18T22:16:40.575Z,14.00
2022-10-18T22:18:44.381Z,13.00
2022-10-18T22:20:54.862Z,11.40
2022-10-18T22:22:57.883Z,11.50
2022-10-18T22:25:00.775Z,10.27
2022-10-18T22:27:03.733Z,10.17
2022-10-18T22:29:08.833Z,14.90
2022-10-18T22:31:15.421Z,10.80
2022-10-18T22:33:19.712Z,12.13
2022-10-18T22:35:22.650Z,7.10
2022-10-18T22:37:25.533Z,10.60
2022-10-18T22:39:28.457Z,10.30
2022-10-18T22:41:31.379Z,18.27
2022-10-18T22:43:34.485Z,10.00
2022-10-18T22:45:37.766Z,10.20
2022-10-18T22:47:40.702Z,24.50
2022-10-18T22:49:44.988Z,10.17
2022-10-18T22:51:47.920Z,10.17
2022-10-18T22:53:51.051Z,13.30
2022-10-18T22:55:54.257Z,10.77
2022-10-18T22:57:57.407Z,7.90
2022-10-18T23:00:00.659Z,15.30
2022-10-18T23:02:03.569Z,9.03
2022-10-18T23:04:06.770Z,17.00
2022-10-18T23:06:20.625Z,9.97
2022-10-18T23:08:23.843Z,11.13
2022-10-18T23:10:26.845Z,13.30
2022-10-18T23:12:30.333Z,10.07
2022-10-18T23:14:33.404Z,10.20
2022-10-18T23:16:36.702Z,11.23
2022-10-18T23:20:47.663Z,8.47
2022-10-18T23:22:52.047Z,13.27
2022-10-18T23:24:55.187Z,9.87
2022-10-18T23:26:58.057Z,13.90
2022-10-18T23:29:01.057Z,14.80
2022-10-18T23:31:08.986Z,14.80
2022-10-18T23:33:11.940Z,17.40
2022-10-18T23:35:15.205Z,20.63
2022-10-18T23:37:18.205Z,10.83
2022-10-18T23:39:22.819Z,11.13
2022-10-18T23:41:25.985Z,11.80
2022-10-18T23:43:28.961Z,10.40
2022-10-18T23:45:31.885Z,10.00
2022-10-18T23:47:35.166Z,9.53
2022-10-18T23:49:38.269Z,11.17
2022-10-18T23:51:41.108Z,8.00
2022-10-18T23:53:44.215Z,11.73
2022-10-18T23:55:54.328Z,9.23
2022-10-18T23:57:57.448Z,11.60
